Time;durP1;ratioP1;P1;durP2;ratioP2;P2;SDS_P1;SDS_P2;PMS_P1;PMS_P2;Temp;Humidity;BMP_temperature;BMP_pressure;BME280_temperature;BME280_humidity;BME280_pressure;Samples;Min_cycle;Max_cycle;Signal;HPM_P1;HPM_P2
2021/07/14 00:00:22;;;;;;;58.33;2.70;;;14.30;99.90;;;;;;5053887;28;20545;-72
2021/07/14 00:02:50;;;;;;;58.13;2.50;;;14.30;99.90;;;;;;5052884;28;20460;-73
2021/07/14 00:05:19;;;;;;;58.20;2.57;;;14.30;99.90;;;;;;5053295;28;20484;-73
2021/07/14 00:07:47;;;;;;;58.30;2.83;;;14.30;99.90;;;;;;5052645;28;20448;-73
2021/07/14 00:10:17;;;;;;;58.27;2.50;;;14.30;99.90;;;;;;5052458;28;20459;-73
2021/07/14 00:12:51;;;;;;;58.37;2.60;;;14.30;99.90;;;;;;5051575;28;21130;-73
2021/07/14 00:23:35;;;;;;;58.17;2.60;;;14.30;99.90;;;;;;5051956;28;20559;-72
2021/07/14 00:26:01;;;;;;;58.30;2.50;;;14.20;99.90;;;;;;5052046;28;20591;-72
2021/07/14 00:28:28;;;;;;;59.57;4.97;;;14.20;99.90;;;;;;5051755;28;20550;-72
2021/07/14 00:30:57;;;;;;;58.37;2.90;;;14.20;99.90;;;;;;5051915;28;20536;-72
2021/07/14 00:33:26;;;;;;;58.17;2.80;;;14.20;99.90;;;;;;5051713;28;20452;-72
2021/07/14 00:35:53;;;;;;;58.20;3.00;;;14.10;99.90;;;;;;5051830;28;20982;-72
2021/07/14 00:38:20;;;;;;;59.27;3.90;;;14.20;99.90;;;;;;5052131;28;20444;-72
2021/07/14 00:40:47;;;;;;;58.13;2.50;;;14.20;99.90;;;;;;5052027;28;20445;-72
2021/07/14 00:43:14;;;;;;;58.13;2.60;;;14.10;99.90;;;;;;5051529;28;20984;-72
2021/07/14 00:45:41;;;;;;;58.33;3.10;;;14.10;99.90;;;;;;5051716;28;20678;-72
2021/07/14 00:48:08;;;;;;;58.27;2.60;;;14.10;99.90;;;;;;5051758;28;20461;-73
2021/07/14 00:50:38;;;;;;;58.30;2.60;;;14.10;99.90;;;;;;5051715;28;20527;-72
2021/07/14 00:53:06;;;;;;;58.37;2.60;;;14.10;99.90;;;;;;5051474;28;20452;-72
2021/07/14 00:55:33;;;;;;;58.30;2.57;;;14.10;99.90;;;;;;5051826;28;20464;-72
2021/07/14 00:58:00;;;;;;;58.17;2.83;;;14.00;99.90;;;;;;5051905;28;20531;-72
2021/07/14 01:00:27;;;;;;;58.80;3.40;;;14.00;99.90;;;;;;5051599;28;20457;-72
2021/07/14 01:02:54;;;;;;;58.27;2.80;;;14.00;99.90;;;;;;5051171;28;20549;-73
2021/07/14 01:05:25;;;;;;;58.27;2.60;;;13.90;99.90;;;;;;5051711;28;20485;-73
2021/07/14 01:07:58;;;;;;;58.33;2.70;;;13.90;99.90;;;;;;5051588;28;20539;-72
2021/07/14 01:10:30;;;;;;;58.50;2.80;;;13.80;99.90;;;;;;5051692;28;20547;-72
2021/07/14 01:13:03;;;;;;;58.37;2.87;;;13.80;99.90;;;;;;5051375;28;20844;-72
2021/07/14 01:15:36;;;;;;;58.17;2.90;;;13.70;99.90;;;;;;5051335;28;20571;-72
2021/07/14 01:18:12;;;;;;;58.33;2.70;;;13.60;99.90;;;;;;5051663;28;20448;-72
2021/07/14 01:20:51;;;;;;;58.30;2.60;;;13.70;99.90;;;;;;5051687;28;20450;-72
2021/07/14 01:23:25;;;;;;;58.57;2.80;;;13.70;99.90;;;;;;5051245;28;20448;-73
2021/07/14 01:26:04;;;;;;;58.37;2.70;;;13.70;99.90;;;;;;5051298;28;20486;-73
2021/07/14 01:28:36;;;;;;;58.37;2.70;;;13.70;99.90;;;;;;5051588;28;20444;-72
2021/07/14 01:31:04;;;;;;;58.17;2.70;;;13.70;99.90;;;;;;5051439;28;20520;-72
2021/07/14 01:33:32;;;;;;;58.37;3.20;;;13.60;99.90;;;;;;5051190;28;20882;-72
2021/07/14 01:36:03;;;;;;;58.37;2.70;;;13.60;99.90;;;;;;5051345;28;20881;-72
2021/07/14 01:38:31;;;;;;;58.07;2.67;;;13.70;99.90;;;;;;5051568;28;20455;-72
2021/07/14 01:41:01;;;;;;;58.37;3.17;;;13.70;99.90;;;;;;5052433;28;20789;-72
2021/07/14 01:43:35;;;;;;;58.23;2.60;;;13.70;99.90;;;;;;5055109;28;20911;-72
2021/07/14 01:46:03;;;;;;;58.37;3.07;;;13.80;99.90;;;;;;5055139;28;20848;-72
2021/07/14 01:48:32;;;;;;;58.17;2.60;;;13.80;99.90;;;;;;5055092;28;20455;-73
2021/07/14 01:51:00;;;;;;;58.10;2.63;;;13.80;99.90;;;;;;5055091;28;20823;-72
2021/07/14 01:53:28;;;;;;;58.23;2.90;;;13.90;99.90;;;;;;5054633;28;20486;-73
2021/07/14 01:55:56;;;;;;;57.77;2.60;;;13.90;99.90;;;;;;5055070;28;20448;-72
2021/07/14 01:58:27;;;;;;;57.93;2.47;;;13.90;99.90;;;;;;5055013;28;20538;-72
2021/07/14 02:00:56;;;;;;;58.17;2.60;;;13.90;99.90;;;;;;5054812;28;20444;-72
2021/07/14 02:06:06;;;;;;;58.03;2.50;;;13.90;99.90;;;;;;5052737;28;21012;-72
2021/07/14 02:08:36;;;;;;;58.27;2.50;;;13.80;99.90;;;;;;5054699;28;20447;-72
2021/07/14 02:11:03;;;;;;;58.33;3.20;;;13.90;99.90;;;;;;5054738;28;20475;-72
2021/07/14 02:13:32;;;;;;;58.07;2.60;;;13.90;99.90;;;;;;5054272;28;20452;-72
2021/07/14 02:16:02;;;;;;;58.40;3.60;;;13.90;99.90;;;;;;5054764;28;20440;-72
2021/07/14 02:18:36;;;;;;;58.13;2.67;;;13.90;99.90;;;;;;5054429;28;20957;-72
2021/07/14 02:21:03;;;;;;;57.97;2.60;;;13.90;99.90;;;;;;5054579;28;20815;-72
2021/07/14 02:23:29;;;;;;;57.97;2.50;;;13.90;99.90;;;;;;5054260;28;20478;-72
2021/07/14 02:26:00;;;;;;;58.20;2.53;;;13.90;99.90;;;;;;5054323;28;20475;-72
2021/07/14 02:28:27;;;;;;;58.07;2.70;;;13.90;99.90;;;;;;5054298;28;20440;-72
2021/07/14 02:30:54;;;;;;;58.17;2.70;;;13.90;99.90;;;;;;5054384;28;20454;-73
2021/07/14 02:33:22;;;;;;;58.23;2.53;;;13.90;99.90;;;;;;5054065;28;20539;-72
2021/07/14 02:35:50;;;;;;;57.93;2.60;;;14.00;99.90;;;;;;5054168;28;20937;-73
2021/07/14 02:38:23;;;;;;;57.83;2.60;;;13.90;99.90;;;;;;5054149;28;20519;-72
2021/07/14 02:40:56;;;;;;;57.97;2.70;;;14.00;99.90;;;;;;5054009;28;20944;-72
2021/07/14 02:43:27;;;;;;;58.07;2.60;;;13.90;99.90;;;;;;5053955;28;20459;-72
2021/07/14 02:45:57;;;;;;;58.23;2.60;;;13.90;99.90;;;;;;5054051;28;20477;-72
2021/07/14 02:48:27;;;;;;;58.03;2.70;;;13.90;99.90;;;;;;5053988;28;20544;-72
2021/07/14 02:50:56;;;;;;;57.97;2.67;;;13.80;99.90;;;;;;5053948;28;20451;-72
2021/07/14 02:53:27;;;;;;;58.10;2.60;;;13.80;99.90;;;;;;5053341;28;20538;-72
2021/07/14 02:55:59;;;;;;;58.03;2.63;;;13.80;99.90;;;;;;5053736;28;20475;-72
2021/07/14 02:58:29;;;;;;;58.40;3.00;;;13.80;99.90;;;;;;5053905;28;20455;-72
2021/07/14 03:00:58;;;;;;;58.37;2.70;;;13.70;99.90;;;;;;5053792;28;20539;-73
2021/07/14 03:03:26;;;;;;;58.07;2.73;;;13.70;99.90;;;;;;5053354;28;20456;-72
2021/07/14 03:05:55;;;;;;;58.07;2.70;;;13.70;99.90;;;;;;5053374;28;21017;-72
2021/07/14 03:08:26;;;;;;;57.87;2.70;;;13.70;99.90;;;;;;5053900;28;20831;-72
2021/07/14 03:10:55;;;;;;;58.07;2.60;;;13.70;99.90;;;;;;5053715;28;20511;-72
2021/07/14 03:13:24;;;;;;;58.07;2.63;;;13.60;99.90;;;;;;5053244;28;20527;-72
2021/07/14 03:15:51;;;;;;;58.17;2.70;;;13.60;99.90;;;;;;5053507;28;20535;-72
2021/07/14 03:18:20;;;;;;;58.13;2.57;;;13.60;99.90;;;;;;5053292;28;20535;-72
2021/07/14 03:20:52;;;;;;;59.27;2.90;;;13.60;99.90;;;;;;5053365;28;20535;-72
2021/07/14 03:23:19;;;;;;;58.37;2.70;;;13.60;99.90;;;;;;5053303;28;20462;-72
2021/07/14 03:25:50;;;;;;;58.03;2.60;;;13.60;99.90;;;;;;5053339;28;20530;-73
2021/07/14 03:28:17;;;;;;;58.40;2.60;;;13.60;99.90;;;;;;5053170;28;20544;-72
2021/07/14 03:30:45;;;;;;;57.87;2.60;;;13.60;99.90;;;;;;5053070;28;20459;-73
2021/07/14 03:33:13;;;;;;;58.10;2.70;;;13.60;99.90;;;;;;5053126;28;20448;-73
2021/07/14 03:35:40;;;;;;;57.97;2.60;;;13.60;99.90;;;;;;5053222;28;20472;-72
2021/07/14 03:38:10;;;;;;;58.07;2.60;;;13.60;99.90;;;;;;5053020;28;20948;-72
2021/07/14 03:40:39;;;;;;;58.03;2.70;;;13.60;99.90;;;;;;5053046;28;20535;-73
2021/07/14 03:43:06;;;;;;;58.37;3.10;;;13.60;99.90;;;;;;5052733;28;20844;-72
2021/07/14 03:45:34;;;;;;;58.03;2.63;;;13.60;99.90;;;;;;5052788;28;20471;-72
2021/07/14 03:48:01;;;;;;;58.27;2.80;;;13.70;99.90;;;;;;5052920;28;20488;-73
2021/07/14 03:50:29;;;;;;;58.10;3.17;;;13.70;99.90;;;;;;5052887;28;20543;-72
2021/07/14 03:52:56;;;;;;;58.27;2.80;;;13.70;99.90;;;;;;5052615;28;20535;-73
2021/07/14 03:55:24;;;;;;;57.97;2.67;;;13.70;99.90;;;;;;5052743;28;20464;-72
2021/07/14 03:57:51;;;;;;;58.07;2.80;;;13.70;99.90;;;;;;5052489;28;20444;-72
2021/07/14 04:00:18;;;;;;;58.10;2.60;;;13.70;99.90;;;;;;5052619;28;20452;-72
2021/07/14 04:02:46;;;;;;;58.07;2.60;;;13.70;99.90;;;;;;5052371;28;20449;-72
2021/07/14 04:05:14;;;;;;;58.20;2.70;;;13.70;99.90;;;;;;5052360;28;20511;-72
2021/07/14 04:07:44;;;;;;;58.07;2.40;;;13.70;99.90;;;;;;5052504;28;20541;-72
2021/07/14 04:10:13;;;;;;;58.27;2.70;;;13.70;99.90;;;;;;5052350;28;20948;-72
2021/07/14 04:12:41;;;;;;;59.10;3.03;;;13.60;99.90;;;;;;5052247;28;20455;-72
2021/07/14 04:15:09;;;;;;;58.27;2.60;;;13.60;99.90;;;;;;5052128;28;20559;-72
2021/07/14 04:17:36;;;;;;;58.07;2.60;;;13.60;99.90;;;;;;5052176;28;20483;-72
2021/07/14 04:20:05;;;;;;;58.07;2.90;;;13.60;99.90;;;;;;5052289;28;20478;-72
2021/07/14 04:22:32;;;;;;;57.93;2.60;;;13.60;99.90;;;;;;5052110;28;20707;-72
2021/07/14 04:25:00;;;;;;;58.17;2.70;;;13.60;99.90;;;;;;5051930;28;20555;-72
2021/07/14 04:27:27;;;;;;;58.00;2.60;;;13.60;99.90;;;;;;5052251;28;20856;-72
2021/07/14 04:29:56;;;;;;;58.17;2.67;;;13.60;99.90;;;;;;5052365;28;20531;-72
2021/07/14 04:32:24;;;;;;;57.97;2.60;;;13.60;99.90;;;;;;5051857;28;20453;-72
2021/07/14 04:34:50;;;;;;;57.87;2.47;;;13.70;99.90;;;;;;5051842;28;20967;-72
2021/07/14 04:37:17;;;;;;;58.10;2.90;;;13.70;99.90;;;;;;5051971;28;20451;-72
2021/07/14 04:39:44;;;;;;;58.13;2.60;;;13.80;99.90;;;;;;5051918;28;20488;-72
2021/07/14 04:42:11;;;;;;;58.10;2.50;;;13.80;99.90;;;;;;5051655;28;20498;-72
2021/07/14 04:44:48;;;;;;;58.00;2.50;;;13.90;99.90;;;;;;5051901;28;20472;-72
2021/07/14 04:47:16;;;;;;;58.20;2.67;;;13.90;99.90;;;;;;5051811;28;20527;-72
2021/07/14 04:49:43;;;;;;;58.00;2.50;;;14.00;99.90;;;;;;5051782;28;20450;-72
2021/07/14 04:52:10;;;;;;;58.07;2.53;;;14.00;99.90;;;;;;5051403;28;20463;-73
2021/07/14 04:54:38;;;;;;;57.87;2.57;;;14.10;99.90;;;;;;5051873;28;20468;-72
2021/07/14 04:57:05;;;;;;;57.87;2.40;;;14.10;99.90;;;;;;5051835;28;20495;-72
2021/07/14 04:59:35;;;;;;;57.97;2.50;;;14.20;99.90;;;;;;5051825;28;20444;-72
2021/07/14 05:02:02;;;;;;;57.93;2.70;;;14.20;99.90;;;;;;5051483;28;20456;-72
2021/07/14 05:04:30;;;;;;;58.17;2.90;;;14.20;99.90;;;;;;5051327;28;20485;-72
2021/07/14 05:06:57;;;;;;;57.93;2.50;;;14.30;99.90;;;;;;5051718;28;20571;-72
2021/07/14 05:09:24;;;;;;;57.67;2.60;;;14.30;99.90;;;;;;5051556;28;20491;-72
2021/07/14 05:11:51;;;;;;;57.97;2.60;;;14.40;99.90;;;;;;5051427;28;20532;-72
2021/07/14 05:14:18;;;;;;;58.70;3.57;;;14.40;99.90;;;;;;5051475;28;20989;-72
2021/07/14 05:16:45;;;;;;;58.10;2.70;;;14.40;99.90;;;;;;5053924;28;20476;-72
2021/07/14 05:19:14;;;;;;;58.10;2.60;;;14.50;99.90;;;;;;5055598;28;20452;-72
2021/07/14 05:21:43;;;;;;;58.07;2.60;;;14.50;99.90;;;;;;5055735;28;20447;-72
2021/07/14 05:24:10;;;;;;;58.50;3.20;;;14.60;99.90;;;;;;5055419;28;20479;-72
2021/07/14 05:26:37;;;;;;;57.93;2.63;;;14.60;99.90;;;;;;5055534;28;20488;-72
2021/07/14 05:29:04;;;;;;;58.20;2.80;;;14.70;99.90;;;;;;5055464;28;20544;-72
2021/07/14 05:31:32;;;;;;;58.10;2.60;;;14.60;99.90;;;;;;5055070;28;20466;-72
2021/07/14 05:33:59;;;;;;;58.10;2.60;;;14.70;99.90;;;;;;5055566;28;20471;-72
2021/07/14 05:36:25;;;;;;;57.90;2.50;;;14.60;99.90;;;;;;5055386;28;20449;-71
2021/07/14 05:38:57;;;;;;;58.03;2.60;;;14.70;99.90;;;;;;5055427;28;20464;-71
2021/07/14 05:41:24;;;;;;;58.00;2.70;;;14.70;99.90;;;;;;5055064;28;20449;-71
2021/07/14 05:43:51;;;;;;;58.07;2.60;;;14.60;99.90;;;;;;5055268;28;20512;-71
2021/07/14 05:46:20;;;;;;;57.93;2.57;;;14.70;99.90;;;;;;5055080;28;20477;-71
2021/07/14 05:48:47;;;;;;;58.10;2.50;;;14.70;99.90;;;;;;5055306;28;20477;-71
2021/07/14 05:51:13;;;;;;;58.03;2.40;;;14.80;99.90;;;;;;5055094;28;20828;-71
2021/07/14 05:53:40;;;;;;;58.37;3.00;;;14.80;99.90;;;;;;5054712;28;20555;-71
2021/07/14 05:56:08;;;;;;;57.97;2.60;;;14.80;99.90;;;;;;5054964;28;20440;-71
2021/07/14 05:58:35;;;;;;;57.87;2.70;;;14.80;99.90;;;;;;5054772;28;20480;-71
2021/07/14 06:01:02;;;;;;;58.10;2.50;;;14.80;99.90;;;;;;5054732;28;21012;-71
2021/07/14 06:03:29;;;;;;;58.07;2.73;;;14.90;99.90;;;;;;5054396;28;20467;-70
2021/07/14 06:05:56;;;;;;;58.07;2.83;;;14.90;99.90;;;;;;5054940;28;20536;-71
2021/07/14 06:08:23;;;;;;;58.17;2.90;;;14.90;99.90;;;;;;5054765;28;20678;-71
2021/07/14 06:10:50;;;;;;;58.13;2.60;;;15.00;99.90;;;;;;5054744;28;20535;-71
2021/07/14 06:13:18;;;;;;;58.20;2.80;;;15.00;99.90;;;;;;5054291;28;20477;-70
2021/07/14 06:15:45;;;;;;;58.60;3.57;;;15.10;99.90;;;;;;5054704;28;20465;-71
2021/07/14 06:18:12;;;;;;;57.87;2.70;;;15.10;99.90;;;;;;5054610;28;20452;-70
2021/07/14 06:20:39;;;;;;;58.20;2.70;;;15.10;99.90;;;;;;5054463;28;20454;-71
2021/07/14 06:23:06;;;;;;;57.87;2.60;;;15.10;99.90;;;;;;5054204;28;20457;-71
2021/07/14 06:25:32;;;;;;;57.97;2.50;;;15.10;99.90;;;;;;5054320;28;20919;-70
2021/07/14 06:28:02;;;;;;;58.00;2.70;;;15.10;99.90;;;;;;5053649;28;20481;-71
2021/07/14 06:30:30;;;;;;;58.10;3.10;;;15.10;99.90;;;;;;5054480;28;20454;-71
2021/07/14 06:32:58;;;;;;;58.07;2.60;;;15.10;99.90;;;;;;5054038;28;20973;-72
2021/07/14 06:35:25;;;;;;;57.97;2.60;;;15.10;99.90;;;;;;5054165;28;20479;-71
2021/07/14 06:37:52;;;;;;;57.90;2.60;;;15.10;99.90;;;;;;5054175;28;20446;-71
2021/07/14 06:40:20;;;;;;;58.30;3.10;;;15.20;99.90;;;;;;5053883;28;20489;-71
2021/07/14 06:42:48;;;;;;;57.97;2.60;;;15.20;99.90;;;;;;5053641;28;20447;-72
2021/07/14 06:45:15;;;;;;;58.20;2.80;;;15.30;99.90;;;;;;5053768;28;20474;-71
2021/07/14 06:47:44;;;;;;;58.20;2.90;;;15.30;99.90;;;;;;5053836;28;20573;-71
2021/07/14 06:50:13;;;;;;;58.10;2.73;;;15.30;99.90;;;;;;5054041;28;20457;-71
2021/07/14 06:52:41;;;;;;;57.97;2.70;;;15.30;99.90;;;;;;5053477;28;20451;-72
2021/07/14 06:55:09;;;;;;;58.20;2.60;;;15.30;99.90;;;;;;5053938;28;20577;-72
2021/07/14 06:57:37;;;;;;;58.27;2.57;;;15.30;99.90;;;;;;5053626;28;20457;-71
2021/07/14 07:00:07;;;;;;;57.87;2.70;;;15.30;99.90;;;;;;5053886;28;20460;-71
2021/07/14 07:02:33;;;;;;;58.03;2.60;;;15.40;99.90;;;;;;5053325;28;20489;-71
2021/07/14 07:05:02;;;;;;;57.70;2.60;;;15.40;99.90;;;;;;5053748;28;20907;-71
2021/07/14 07:07:29;;;;;;;58.40;2.77;;;15.50;99.90;;;;;;5053382;28;20572;-71
2021/07/14 07:09:56;;;;;;;57.93;2.50;;;15.60;99.90;;;;;;5068499;28;20459;-71
2021/07/14 07:12:23;;;;;;;57.97;2.50;;;15.60;99.90;;;;;;5053842;28;20480;-71
2021/07/14 07:14:49;;;;;;;57.37;2.60;;;15.60;99.90;;;;;;5053259;28;20511;-71
2021/07/14 07:17:16;;;;;;;57.90;2.50;;;15.60;99.90;;;;;;5053170;28;20485;-70
2021/07/14 07:19:43;;;;;;;58.07;2.87;;;15.70;99.90;;;;;;5053058;28;20533;-71
2021/07/14 07:22:11;;;;;;;58.10;2.53;;;15.70;99.90;;;;;;5053058;28;20536;-71
2021/07/14 07:24:38;;;;;;;58.03;2.40;;;15.80;99.90;;;;;;5053234;28;20595;-72
2021/07/14 07:27:07;;;;;;;58.00;2.70;;;15.90;99.90;;;;;;5053091;28;20554;-75
2021/07/14 07:29:35;;;;;;;58.03;2.60;;;15.90;99.90;;;;;;5072189;28;20450;-72
2021/07/14 07:32:01;;;;;;;57.83;2.37;;;15.90;99.90;;;;;;5072864;28;20454;-73
2021/07/14 07:34:28;;;;;;;58.20;2.60;;;16.00;99.90;;;;;;5071560;28;20905;-72
2021/07/14 07:36:55;;;;;;;58.20;2.60;;;16.10;99.90;;;;;;5073174;28;20886;-72
2021/07/14 07:39:23;;;;;;;58.17;2.90;;;16.30;99.90;;;;;;5072379;28;20492;-72
2021/07/14 07:41:50;;;;;;;58.20;2.80;;;16.40;99.90;;;;;;5072591;28;20493;-72
2021/07/14 07:44:17;;;;;;;57.80;2.80;;;16.50;99.90;;;;;;5072751;28;20502;-72
2021/07/14 07:46:44;;;;;;;57.80;2.43;;;16.60;99.90;;;;;;5072651;28;20500;-72
2021/07/14 07:49:11;;;;;;;57.97;2.60;;;16.60;99.90;;;;;;5072544;28;20915;-71
2021/07/14 07:51:38;;;;;;;58.10;2.50;;;16.70;99.90;;;;;;5072517;28;20545;-72
2021/07/14 07:54:05;;;;;;;58.27;3.20;;;16.70;99.90;;;;;;5072446;28;20557;-72
2021/07/14 07:56:34;;;;;;;57.70;2.50;;;16.80;99.90;;;;;;5072623;28;20536;-72
2021/07/14 07:59:02;;;;;;;58.37;2.57;;;16.80;99.90;;;;;;5072539;28;20462;-72
2021/07/14 08:01:29;;;;;;;58.33;2.50;;;16.80;99.90;;;;;;5072029;28;20448;-72
2021/07/14 08:03:56;;;;;;;58.40;2.70;;;16.60;99.90;;;;;;5071051;28;20483;-73
2021/07/14 08:06:23;;;;;;;58.07;2.50;;;16.50;99.90;;;;;;5072320;28;21005;-73
2021/07/14 08:08:49;;;;;;;57.93;2.90;;;16.30;99.90;;;;;;5072377;28;20578;-73
2021/07/14 08:11:16;;;;;;;58.13;2.50;;;16.20;99.90;;;;;;5072098;28;20501;-72
2021/07/14 08:13:45;;;;;;;58.37;3.03;;;16.20;99.90;;;;;;5071043;28;20561;-72
2021/07/14 08:16:12;;;;;;;57.97;2.53;;;16.20;99.90;;;;;;5071988;28;20446;-71
2021/07/14 08:18:39;;;;;;;58.20;2.47;;;16.10;99.90;;;;;;5072109;28;20961;-72
2021/07/14 08:21:06;;;;;;;58.03;2.70;;;16.00;99.90;;;;;;5071944;28;20461;-72
2021/07/14 08:23:33;;;;;;;58.17;2.60;;;16.00;99.90;;;;;;5071760;28;20537;-73
2021/07/14 08:25:59;;;;;;;57.87;2.50;;;15.90;99.90;;;;;;5072481;28;20454;-72
2021/07/14 08:28:26;;;;;;;57.97;2.50;;;15.90;99.90;;;;;;5071965;28;20489;-72
2021/07/14 08:30:54;;;;;;;57.97;2.50;;;15.90;99.90;;;;;;5071701;28;20478;-74
2021/07/14 08:33:21;;;;;;;58.17;2.57;;;15.90;99.90;;;;;;5071816;28;20541;-73
2021/07/14 08:35:49;;;;;;;58.10;2.90;;;15.90;99.90;;;;;;5070468;28;20450;-71
2021/07/14 08:38:16;;;;;;;57.77;2.80;;;15.80;99.90;;;;;;5071710;28;20534;-72
2021/07/14 08:40:44;;;;;;;58.00;2.50;;;15.90;99.90;;;;;;5071905;28;20492;-72
2021/07/14 08:43:14;;;;;;;57.90;2.67;;;15.90;99.90;;;;;;5071468;28;20858;-72
2021/07/14 08:45:41;;;;;;;58.43;3.00;;;15.80;99.90;;;;;;5072182;28;20474;-72
2021/07/14 08:48:13;;;;;;;57.80;2.57;;;15.80;99.90;;;;;;5071894;28;20476;-72
2021/07/14 08:50:43;;;;;;;58.53;3.27;;;15.80;99.90;;;;;;5071817;28;20547;-72
2021/07/14 08:53:15;;;;;;;58.90;3.10;;;15.80;99.90;;;;;;5071514;28;20936;-73
2021/07/14 08:55:44;;;;;;;58.13;2.50;;;15.90;99.90;;;;;;5071491;28;20560;-72
2021/07/14 08:58:12;;;;;;;58.13;2.47;;;15.90;99.90;;;;;;5071914;28;20438;-72
2021/07/14 09:00:39;;;;;;;58.30;2.70;;;15.80;99.90;;;;;;5071621;28;20485;-72
2021/07/14 09:03:06;;;;;;;57.97;2.60;;;15.80;99.90;;;;;;5071348;28;20462;-73
2021/07/14 09:05:35;;;;;;;57.93;2.50;;;15.80;99.90;;;;;;5070391;28;20572;-72
2021/07/14 09:08:02;;;;;;;57.90;2.50;;;15.90;99.90;;;;;;5071294;28;20552;-72
2021/07/14 09:10:28;;;;;;;58.00;2.40;;;15.90;99.90;;;;;;5071372;28;20449;-72
2021/07/14 09:12:57;;;;;;;58.97;2.83;;;16.00;99.90;;;;;;5071250;28;20453;-72
2021/07/14 09:15:27;;;;;;;57.77;2.70;;;16.00;99.90;;;;;;5071402;28;20469;-73
2021/07/14 09:17:56;;;;;;;57.97;2.80;;;16.10;99.90;;;;;;5071626;28;20447;-72
2021/07/14 09:20:25;;;;;;;58.10;2.40;;;16.20;99.90;;;;;;5071470;28;20537;-72
2021/07/14 09:23:07;;;;;;;58.30;2.60;;;16.20;99.90;;;;;;5070970;28;20984;-73
2021/07/14 09:25:42;;;;;;;57.90;2.70;;;16.10;99.90;;;;;;5071741;28;20513;-72
2021/07/14 09:28:10;;;;;;;58.17;2.50;;;16.10;99.90;;;;;;5071488;28;20924;-72
2021/07/14 09:30:39;;;;;;;57.97;2.70;;;16.10;99.90;;;;;;5071420;28;20541;-72
2021/07/14 09:33:08;;;;;;;58.10;2.70;;;16.20;99.90;;;;;;5071053;28;20451;-72
2021/07/14 09:35:37;;;;;;;58.00;2.80;;;16.30;99.90;;;;;;5070896;28;20556;-73
2021/07/14 09:38:08;;;;;;;57.97;3.07;;;16.40;99.90;;;;;;5054056;28;20874;-72
2021/07/14 09:40:35;;;;;;;58.13;2.83;;;16.60;99.90;;;;;;5070283;28;20533;-72
2021/07/14 09:43:04;;;;;;;58.27;2.83;;;16.70;99.90;;;;;;5070918;28;20507;-72
2021/07/14 09:45:51;;;;;;;58.07;2.70;;;16.70;99.90;;;;;;5071196;28;20475;-73
2021/07/14 09:48:25;;;;;;;60.20;4.00;;;16.80;99.90;;;;;;5071374;28;20517;-72
2021/07/14 09:50:54;;;;;;;57.53;2.43;;;16.90;99.90;;;;;;5071344;28;20549;-72
2021/07/14 09:53:24;;;;;;;57.77;2.67;;;17.00;99.90;;;;;;5070765;28;20542;-72
2021/07/14 09:55:53;;;;;;;57.77;2.60;;;17.20;99.90;;;;;;5071175;28;20538;-74
2021/07/14 09:58:25;;;;;;;58.40;3.00;;;17.40;99.90;;;;;;5070945;28;20526;-73
2021/07/14 10:00:54;;;;;;;57.97;2.60;;;17.60;99.90;;;;;;5071274;28;20450;-73
2021/07/14 10:03:27;;;;;;;58.10;2.60;;;17.70;99.90;;;;;;5073849;28;20551;-73
2021/07/14 10:06:02;;;;;;;57.97;2.50;;;17.80;99.90;;;;;;5074698;28;20475;-74
2021/07/14 10:08:31;;;;;;;58.40;2.70;;;18.00;99.90;;;;;;5072963;28;20483;-72
2021/07/14 10:11:18;;;;;;;58.07;2.80;;;18.20;99.90;;;;;;5074682;28;20450;-73
2021/07/14 10:14:00;;;;;;;58.17;2.60;;;18.50;99.90;;;;;;5074274;28;20970;-73
2021/07/14 10:16:29;;;;;;;57.97;2.43;;;18.70;96.60;;;;;;5074304;28;20447;-72
2021/07/14 10:19:01;;;;;;;57.93;2.73;;;19.00;97.30;;;;;;5074412;28;20530;-73
2021/07/14 10:21:29;;;;;;;58.30;2.43;;;19.40;86.60;;;;;;5074166;28;21039;-72
2021/07/14 10:23:57;;;;;;;57.97;2.50;;;19.80;62.40;;;;;;5074285;28;21159;-71
2021/07/14 10:26:24;;;;;;;58.17;3.00;;;20.10;27.60;;;;;;5074412;28;20545;-73
2021/07/14 10:28:52;;;;;;;59.27;3.73;;;20.60;3.60;;;;;;5074217;28;21016;-73
2021/07/14 10:31:21;;;;;;;58.27;2.30;;;21.10;1.00;;;;;;5074123;28;20457;-71
2021/07/14 10:33:50;;;;;;;58.40;3.27;;;21.50;1.00;;;;;;5073912;28;20467;-71
2021/07/14 10:36:19;;;;;;;58.07;2.40;;;21.90;1.00;;;;;;5074370;28;20481;-71
2021/07/14 10:38:50;;;;;;;57.73;2.30;;;22.20;1.00;;;;;;5072601;28;20951;-70
2021/07/14 10:41:18;;;;;;;58.00;2.70;;;22.80;1.00;;;;;;5073994;28;20475;-71
2021/07/14 10:43:47;;;;;;;57.40;2.50;;;23.10;1.00;;;;;;5073909;28;20467;-72
2021/07/14 10:46:15;;;;;;;57.97;2.40;;;23.00;1.00;;;;;;5073870;28;20542;-71
2021/07/14 10:48:43;;;;;;;58.40;2.93;;;22.70;1.00;;;;;;5074108;28;20579;-72
2021/07/14 10:51:10;;;;;;;58.07;2.57;;;22.20;1.00;;;;;;5074109;28;20533;-72
2021/07/14 10:53:39;;;;;;;58.57;2.23;;;21.80;1.00;;;;;;5073806;28;20526;-69
2021/07/14 10:56:07;;;;;;;58.37;2.50;;;21.40;1.00;;;;;;5073966;28;20454;-72
2021/07/14 10:58:37;;;;;;;58.87;3.20;;;21.20;1.00;;;;;;5073888;28;20442;-69
2021/07/14 11:01:04;;;;;;;58.20;2.40;;;21.30;1.00;;;;;;5073607;28;20985;-71
2021/07/14 11:03:47;;;;;;;57.57;2.70;;;21.40;1.00;;;;;;5073271;28;20948;-71
2021/07/14 11:06:15;;;;;;;58.10;2.20;;;21.50;1.00;;;;;;5073760;28;20534;-71
2021/07/14 11:08:44;;;;;;;57.57;2.23;;;21.60;1.00;;;;;;5073344;28;20475;-71
2021/07/14 11:11:12;;;;;;;57.57;2.40;;;21.70;1.00;;;;;;5071984;28;20459;-71
2021/07/14 11:13:41;;;;;;;57.67;2.47;;;21.80;1.00;;;;;;5073306;28;20474;-72
2021/07/14 11:16:29;;;;;;;57.87;2.57;;;21.80;1.00;;;;;;5073226;28;20478;-71
2021/07/14 11:19:01;;;;;;;58.30;2.80;;;21.70;1.00;;;;;;5073837;28;20936;-70
2021/07/14 11:21:50;;;;;;;57.70;2.40;;;21.80;1.00;;;;;;5073010;28;20451;-70
2021/07/14 11:24:55;;;;;;;57.60;2.47;;;21.80;1.00;;;;;;5064884;28;20850;-71
2021/07/14 11:27:48;;;;;;;57.90;2.20;;;22.00;1.00;;;;;;5073308;28;20451;-70
2021/07/14 11:30:29;;;;;;;57.63;2.20;;;22.30;1.00;;;;;;5073366;28;20573;-70
2021/07/14 11:32:58;;;;;;;58.50;2.70;;;22.50;1.00;;;;;;5073121;28;20549;-70
2021/07/14 11:35:33;;;;;;;57.47;2.33;;;22.70;1.00;;;;;;5073149;28;20467;-72
2021/07/14 11:38:02;;;;;;;57.67;2.50;;;22.90;1.00;;;;;;5073191;28;20534;-72
2021/07/14 11:40:38;;;;;;;58.27;2.60;;;23.10;1.00;;;;;;5072904;28;20506;-73
2021/07/14 11:43:18;;;;;;;57.87;2.77;;;23.20;1.00;;;;;;5072793;28;20473;-73
2021/07/14 11:45:48;;;;;;;57.60;2.17;;;23.00;1.00;;;;;;5072976;28;20448;-70
2021/07/14 11:48:17;;;;;;;58.20;2.70;;;23.00;1.00;;;;;;5073229;28;20534;-71
2021/07/14 11:50:51;;;;;;;58.07;2.80;;;22.90;1.00;;;;;;5072666;28;20474;-71
2021/07/14 11:53:44;;;;;;;58.10;2.20;;;22.70;1.00;;;;;;5072647;28;20455;-72
2021/07/14 11:56:17;;;;;;;58.17;2.57;;;22.60;1.00;;;;;;5070578;28;20976;-71
2021/07/14 11:59:09;;;;;;;57.83;2.10;;;22.80;1.00;;;;;;5072006;28;20436;-71
2021/07/14 12:02:00;;;;;;;57.77;2.20;;;23.00;1.00;;;;;;5072278;28;20444;-72
2021/07/14 12:04:29;;;;;;;57.73;2.20;;;23.10;1.00;;;;;;5072069;28;20501;-72
2021/07/14 12:07:22;;;;;;;57.70;2.10;;;23.00;1.00;;;;;;5072323;28;20539;-72
2021/07/14 12:09:50;;;;;;;57.63;2.27;;;22.80;1.00;;;;;;5067277;28;20479;-72
2021/07/14 12:12:21;;;;;;;57.70;2.20;;;22.80;1.00;;;;;;5072141;28;20467;-72
2021/07/14 12:14:51;;;;;;;57.80;2.37;;;22.90;1.00;;;;;;5072260;28;20495;-71
2021/07/14 12:17:22;;;;;;;57.93;2.50;;;23.20;1.00;;;;;;5072223;28;20535;-71
2021/07/14 12:19:50;;;;;;;57.77;2.20;;;23.50;1.00;;;;;;5072032;28;20451;-71
2021/07/14 12:22:19;;;;;;;57.70;2.40;;;23.60;1.00;;;;;;5071692;28;20473;-71
2021/07/14 12:24:49;;;;;;;57.87;2.20;;;23.80;1.00;;;;;;5071670;28;20554;-71
2021/07/14 12:27:21;;;;;;;58.20;2.30;;;23.90;1.00;;;;;;5071900;28;20485;-70
2021/07/14 12:29:57;;;;;;;57.50;2.40;;;23.90;1.00;;;;;;5071961;28;20486;-71
2021/07/14 12:32:37;;;;;;;57.67;2.00;;;24.00;1.00;;;;;;5071352;28;20453;-70
2021/07/14 12:35:07;;;;;;;57.73;2.07;;;24.10;1.00;;;;;;5071691;28;20967;-70
2021/07/14 12:37:35;;;;;;;57.83;2.50;;;23.90;1.00;;;;;;5071953;28;20862;-71
2021/07/14 12:40:02;;;;;;;57.90;2.50;;;23.90;1.00;;;;;;5071887;28;20448;-72
2021/07/14 12:42:29;;;;;;;57.80;2.10;;;23.90;1.00;;;;;;5071934;28;20973;-72
2021/07/14 12:44:56;;;;;;;57.67;2.00;;;23.50;1.00;;;;;;5071419;28;20972;-72
2021/07/14 12:47:23;;;;;;;58.23;2.60;;;23.10;1.00;;;;;;5071649;28;20541;-72
2021/07/14 12:49:53;;;;;;;57.80;2.20;;;22.90;1.00;;;;;;5071614;28;20543;-72
2021/07/14 12:52:21;;;;;;;57.93;2.33;;;22.80;1.00;;;;;;5071469;28;20533;-72
2021/07/14 12:54:54;;;;;;;57.67;2.00;;;22.70;1.00;;;;;;5071663;28;20853;-72
2021/07/14 12:57:27;;;;;;;57.87;2.20;;;22.60;1.00;;;;;;5071614;28;20836;-72
2021/07/14 13:00:03;;;;;;;57.63;2.60;;;22.70;1.00;;;;;;5071527;28;20902;-71